TC 13.1 Halloween Half Marathon

Age Group Results

October 31, 2015


Results by MCM Timing and Results LLC MCM Timing and Results LLC


Men: Top Finishers 1-19 25-29 30-34 35-39 40-44 45-49 50-54 55-59 60-64 65-69 70-99
Women: Top Finishers 1-19 20-24 25-29 30-34 35-39 40-44 45-49 50-54 55-59 60-64 65-69 70-99

Half Marathon

Top

Female Open Winners

Place Name City Bib No Age Overall Total Time Pace
1 Krista Mueller Stuart FL 424 41 5 1:27:47 6:42/M
Top

Female Masters Winners

Place Name City Bib No Age Overall Total Time Pace
1 Joan Klostreich Palm City FL Us 145 42 16 1:34:50 7:14/M
Top

Female Grandmasters Winners

Place Name City Bib No Age Overall Total Time Pace
1 Toni Medvetz Loxahatchee FL Us 247 52 48 1:52:10 8:34/M
Top

Female 19 and Under

Place Name City Bib No Age Overall Total Time Pace
1 Erin Smith Port Saint Lucie FL Us 332 16 202 2:23:43 10:58/M
Top

Female 20 to 24

Place Name City Bib No Age Overall Total Time Pace
1 Amber Christenberry Tempe AZ Us 58 24 52 1:53:38 8:40/M
2 Jackie Hall Palm Beach FL Us 153 24 153 2:14:23 10:15/M
3 Ali Meyer Ft Pierce FL Us 254 24 173 2:18:52 10:36/M
4 Isabelle Lendl Port Saint Lucie FL Us 221 24 193 2:21:56 10:50/M
5 Christine Maleske Jensen Beach FL Us 234 23 250 2:34:01 11:45/M
6 Taylor Weber Land O Lakes FL Us 380 24 294 2:46:27 12:42/M
7 Hailey Cusimano West Palm Beach FL Us 85 21 315 2:52:40 13:11/M
8 Jillian Sullivan Stuart FL Us 345 24 325 2:55:57 13:26/M
Top

Female 25 to 29

Place Name City Bib No Age Overall Total Time Pace
1 Erin Gollery West Palm Beach FL Us 136 27 7 1:29:15 6:49/M
2 Kait Toebe Stuart FL 361 25 32 1:42:31 7:50/M
3 Regina Claxton Palm Beach Gardens FL Us 67 28 66 1:56:14 8:52/M
4 Natalia Shpakova Boca Raton FL Us 323 29 73 1:57:37 8:59/M
5 Lisa Landis Port Saint Lucie FL Us 213 26 102 2:03:46 9:27/M
6 Zoilamys Martinez Port Saint Lucie FL Us 236 29 123 2:08:46 9:50/M
7 Cassie Lombaard Fort Pierce FL Us 228 26 125 2:08:52 9:50/M
8 Ashley Morse Fort Pierce FL Us 261 27 135 2:10:04 9:56/M
9 Whitney Duteau Port St. Lucie FL Us 106 27 146 2:13:11 10:10/M
10 April Jones Port St Lucie FL Us 184 29 158 2:15:41 10:21/M
11 Katie Michalowski Port Saint Lucie FL Us 255 29 164 2:16:40 10:26/M
12 Michelle Deedrick West Palm Beach FL Us 93 26 185 2:21:01 10:46/M
13 Meghan Smarinsky Lake Worth FL Us 330 25 222 2:28:23 11:20/M
14 Kaitlyn Matteson Stuart FL Us 238 29 235 2:31:36 11:34/M
15 Melissa Hayslip Port Saint Lucie FL Us 160 29 237 2:31:42 11:35/M
16 Kaitlyn Kuhn Port Saint Lucie FL Us 205 25 248 2:33:49 11:45/M
17 Amanda Morgan Saint Augustine FL 186 25 267 2:37:20 12:01/M
18 Allyson Swan Fort Pierce FL Us 346 29 270 2:37:35 12:02/M
19 Alyson Goulet Port Saint Lucie FL Us 139 27 283 2:41:19 12:19/M
20 Samantha Capaldo Palm City FL Us 55 28 291 2:46:09 12:41/M
21 Lindsey Romaszewski West Palm Beach FL Us 309 26 293 2:46:27 12:42/M
22 Elyssa Harrelson Port St.lucie FL Us 156 29 321 2:55:15 13:23/M
23 Kelli Siters Stuart FL Us 327 25 322 2:55:18 13:23/M
24 Colleen Sullivan Stuart FL Us 344 27 324 2:55:56 13:26/M
25 Rebecca Meister Palm City FL Us 248 26 329 2:57:12 13:32/M
26 Erin Sacco Stuart FL Us 312 25 335 3:02:10 13:54/M
27 Caryn Shaffer Port Saint Lucie FL Us 321 27 346 3:11:04 14:35/M
28 Megan Grover Stuart FL Us 149 28 360 3:28:50 15:56/M
29 Sara Falk Melbourne FL Us 116 25 371 3:58:07 18:11/M
Top

Female 30 to 34

Place Name City Bib No Age Overall Total Time Pace
1 Lori Steger Palm City FL 5 34 20 1:37:40 7:27/M
2 Sarah Edens Stuart FL Us 421 33 61 1:55:43 8:50/M
3 Kelsey Welsh Jupiter FL Us 381 31 76 1:58:03 9:01/M
4 Melanie Baculima Port Saint Lucie FL Us 20 30 90 1:59:58 9:09/M
5 Jessica Vanvalkenburgh Stuart FL Us 369 32 91 1:59:59 9:10/M
6 Lauren O'Reilly Tequesta FL Us 275 31 93 2:00:13 9:11/M
7 Katrina Grbic Port St Lucie FL Us 144 33 100 2:02:45 9:22/M
8 Stephanie Soricelli Cooper City FL Us 337 32 108 2:04:02 9:28/M
9 Kelly Diaz Port Saint Lucie FL Us 98 32 112 2:05:34 9:35/M
10 Michelle Sarasola Port Saint Lucie FL Us 316 32 126 2:08:53 9:50/M
11 Lindsey Ortiz Port Saint Lucie FL Us 277 30 129 2:09:32 9:53/M
12 Alyssa Kenyon Stuart FL Us 193 33 136 2:10:11 9:56/M
13 Jilian Melenkevitz Palm City FL Us 249 34 141 2:11:16 10:01/M
14 Mary Kuhns Gainesville FL Us 207 30 148 2:13:53 10:13/M
15 Ashley Killough Palm City FL Us 194 30 188 2:21:22 10:47/M
16 Jamie Lee Pierce Port Saint Lucie FL Us 290 33 195 2:22:13 10:51/M
17 Michele Williams Port Saint Lucie FL Us 392 34 201 2:23:07 10:55/M
18 Megan Rogers Jupiter FL Us 307 32 204 2:24:33 11:02/M
19 Kristin Campbell Port Saint Lucie FL Us 52 33 217 2:27:36 11:16/M
20 Ashley Morales Port Saint Lucie FL Us 259 30 223 2:28:48 11:22/M
21 Jean Thompson Jupiter FL Us 359 32 228 2:29:31 11:25/M
22 Kathryn Hoyt Delray Beach FL Us 170 30 231 2:30:07 11:28/M
23 Hilda Greene Port Saint Lucie FL Us 146 34 238 2:31:44 11:35/M
24 Cyndi Melley Palm City FL Us 250 31 241 2:32:08 11:37/M
25 Tara Cain Jupiter FL Us 49 31 253 2:34:22 11:47/M
26 Kerri Krieger Port St. Lucie FL 417 30 262 2:35:36 11:53/M
27 Angela Mill Port St Lucie FL Us 423 31 269 2:37:25 12:01/M
28 Alexis Bastidas Lake Worth FL Us 28 32 272 2:37:58 12:04/M
29 Valerie Herring Stuart FL Us 164 34 287 2:42:16 12:23/M
30 Narda Lepelletier Port Saint Lucie FL Us 222 34 298 2:47:30 12:47/M
31 Jessica Seibert Jensen Beach FL Us 319 32 299 2:47:47 12:48/M
32 Monica MacIas Fort Pierce FL Us 232 32 302 2:48:11 12:50/M
33 Amanda Price Tampa FL Us 299 30 309 2:51:04 13:04/M
34 Heather Huszar Port Saint Lucie FL Us 174 30 328 2:56:21 13:28/M
35 Kimberly Pierre Stuart FL Us 291 32 343 3:07:53 14:21/M
36 Mubina Dunn Port Saint Lucie FL Us 105 30 351 3:17:26 15:04/M
37 Alicia Irwin Port Saint Lucie FL Us 176 34 356 3:24:52 15:38/M
38 Cara Campbell Hobe Soundf FL Us 51 30 357 3:24:53 15:38/M
39 Heather Coleman Hobe Sound FL Us 72 33 369 3:52:33 17:45/M
Top

Female 35 to 39

Place Name City Bib No Age Overall Total Time Pace
1 Angelica Jones Jensen Beach FL Us 4 38 12 1:31:58 7:01/M
2 Jamie Spooner Port Saint Lucie FL Us 407 38 26 1:39:45 7:37/M
3 Jennifer Pressley Jupiter FL Us 298 38 51 1:53:33 8:40/M
4 Sara Devi Pierson Delray Beach FL Us 406 36 60 1:55:34 8:49/M
5 Nicolle Gozdz Jensen Beach FL Us 141 39 70 1:56:49 8:55/M
6 Caroline Lawless Stuart FL Us 218 38 82 1:59:04 9:05/M
7 Cheryl Emery Port Saint Lucie FL Us 112 37 89 1:59:55 9:09/M
8 Melissa Alvarado Romero Port St Lucie FL Us 15 37 96 2:01:08 9:15/M
9 Lori Tamburri Port St Lucie FL Us 352 35 101 2:03:45 9:27/M
10 Stephanie Wilhelm Port Saint Lucie FL 387 37 104 2:03:46 9:27/M
11 Tomorra Smith Stuart FL 334 37 111 2:05:17 9:34/M
12 Faysioux Kirby Jupiter FL Us 195 36 113 2:05:42 9:36/M
13 Rebecca Johnson Palm City FL Us 182 38 115 2:06:03 9:37/M
14 Dawn Argyriou Port St Lucie FL Us 18 36 131 2:09:46 9:54/M
15 Johanna O'Sullivan Fort Pierce FL Us 280 35 134 2:10:04 9:56/M
16 Heather Cintron Stuart FL Us 60 35 139 2:11:13 10:01/M
17 Kristin Parker North Palm Beach FL Us 286 38 140 2:11:15 10:01/M
18 Beth Eversole Palm Beach Gardens FL Us 115 39 150 2:13:59 10:14/M
19 Shana Rogers Jensen Beach FL Us 308 38 152 2:14:15 10:15/M
20 Kelly Francke Palm City FL Us 129 36 155 2:14:37 10:17/M
21 Kelly Hunston Stuart FL Us 172 36 157 2:15:33 10:21/M
22 Christina Langen Port Saint Lucie FL Us 214 37 161 2:15:55 10:23/M
23 Kirsten Ongel Port Saint Lucie FL Us 274 39 167 2:17:01 10:28/M
24 Sarah Rahilly Jupiter FL Us 300 38 175 2:19:10 10:37/M
25 Christine Taylor Stuart FL 355 36 191 2:21:52 10:50/M
26 Amy Reynolds Jupiter FL Us 304 38 205 2:24:34 11:02/M
27 Kerri Daniels Port Saint Lucie FL Us 90 35 206 2:24:35 11:02/M
28 Stephanie Baker Stuart FL Us 22 36 207 2:25:18 11:05/M
29 Joy McNevin Port St Lucie FL Us 244 38 210 2:25:30 11:06/M
30 Amy Ulmer Jupiter FL Us 368 39 219 2:27:41 11:16/M
31 Corinne Lexer Port Saint Lucie FL Us 223 36 221 2:28:09 11:19/M
32 Karla Tovar Port Saint Lucie FL Us 366 38 243 2:32:16 11:37/M
33 Heather Swindler Stuart FL Us 349 37 251 2:34:21 11:47/M
34 Jamie Dowd Stuart FL Us 104 38 252 2:34:21 11:47/M
35 Marjory McKeon Stuart FL Us 242 38 255 2:34:24 11:47/M
36 Amy Freese Palm City FL Us 130 35 257 2:34:25 11:47/M
37 Lacey Kneip Port Saint Lucie FL Us 198 35 285 2:41:55 12:22/M
38 Kristi Brown Jensen Beach FL Us 43 35 290 2:44:49 12:35/M
39 Kerry Boze Palm City FL Us 37 37 292 2:46:10 12:41/M
40 Lauren Lisboa Port Saint Lucie FL Us 227 35 317 2:53:04 13:13/M
41 Jennifer Lieber Stuart FL Us 224 36 326 2:56:17 13:27/M
42 Wendy Kneebone Stuart FL Us 197 37 330 2:57:30 13:33/M
43 Zenetta Diemer Stuart FL Us 101 38 342 3:07:47 14:20/M
44 Julie Sacco-Lunsford Port Saint Lucie FL Us 313 37 354 3:23:51 15:34/M
Top

Female 40 to 44

Place Name City Bib No Age Overall Total Time Pace
1 Pamela Oser Jensen Beach FL Us 278 43 25 1:39:19 7:35/M
2 Regina Goolsby Loxahatchee FL Us 137 44 37 1:44:49 8:00/M
3 Kimberly Palisin Palm City FL 284 41 62 1:55:59 8:51/M
4 Stephanie Bualat Boca Raton FL Us 410 43 72 1:57:32 8:58/M
5 Amy Branden Stuart FL Us 39 41 77 1:58:07 9:01/M
6 Helen Martin Stuart FL Us 235 44 79 1:58:40 9:04/M
7 Heather Craig Stuart FL Us 78 44 83 1:59:18 9:06/M
8 Kristen Sweeney Jensen Beach FL Us 347 41 97 2:01:20 9:16/M
9 Colleen Oehlberg Port Saint Lucie FL Us 272 40 98 2:01:45 9:18/M
10 Tracy Ferriter Jupiter FL Us 120 40 99 2:02:02 9:19/M
11 Mariana Williams Jupiter FL Us 391 43 117 2:06:32 9:40/M
12 Wendy Alexandris Jupiter FL Us 12 43 127 2:08:55 9:50/M
13 Molly Talanczuk Palm City FL Us 351 41 137 2:10:14 9:56/M
14 Michelle Yant Stuart FL Us 396 41 138 2:10:19 9:57/M
15 Megan Billitti Stuart FL Us 33 41 143 2:11:23 10:02/M
16 Sarah Kasher Palm Beach Gardens FL Us 189 40 144 2:11:57 10:04/M
17 Beth Leiblein Stuart FL Us 220 44 154 2:14:26 10:16/M
18 Allison Graham Palm City FL 142 44 159 2:15:45 10:22/M
19 Melody Sloan Port St Lucie FL Us 329 42 160 2:15:54 10:22/M
20 Misty Broderick Palm City FL Us 42 44 163 2:16:25 10:25/M
21 Kelly Merriman Stuart FL Us 252 41 170 2:18:19 10:34/M
22 Lisa Kusen Jensen Beach FL Us 210 44 171 2:18:41 10:35/M
23 Kate Christensen Jensen Beach FL Us 59 40 198 2:22:17 10:52/M
24 Darline Karbowski Loxahatchee FL Us 188 42 200 2:22:47 10:54/M
25 Ana Cividanes Fort Pierce FL Us 64 40 214 2:26:31 11:11/M
26 Jana Burnette Palm City FL Us 47 44 225 2:28:57 11:22/M
27 Elaine Lutz Port Saint Lucie FL Us 230 44 232 2:30:11 11:28/M
28 Melissa Efron Port Saint Lucie FL Us 108 40 233 2:30:46 11:31/M
29 Bethsheba Cusimano Jensen Beach FL Us 84 42 245 2:32:39 11:39/M
30 Michelle Desio Port St Lucie FL Us 96 40 247 2:32:44 11:40/M
31 Shannon Reis Port Saint Lucie FL Us 302 40 249 2:33:50 11:45/M
32 Sonya Fronsoe Palm City FL Us 8 44 254 2:34:23 11:47/M
33 Jena Welliever Palm City FL Us 405 44 256 2:34:24 11:47/M
34 Rochelle Therien Sebastian FL Us 358 41 265 2:36:20 11:56/M
35 Renee Lancaster Jupiter FL Us 212 42 276 2:39:41 12:11/M
36 Brenda Coffey Jupiter FL Us 70 43 277 2:39:44 12:12/M
37 Amy Kreitz Jensen Beach FL Us 201 44 281 2:41:03 12:18/M
38 Nadine Armstrong Sebastian FL Us 19 44 282 2:41:18 12:19/M
39 Anne Warner Palm City FL Us 378 44 296 2:46:48 12:44/M
40 Melissa Strauser Hobe Sound FL Us 343 40 300 2:47:55 12:49/M
41 Diane Sweet Stuart FL Us 348 44 301 2:48:10 12:50/M
42 Jessica Dye Port St Lucie FL Us 107 43 314 2:52:34 13:10/M
43 Jerri Goshien Stuart FL Us 138 41 319 2:54:59 13:21/M
44 Lisa Sirk Jensen Beach FL Us 326 41 323 2:55:20 13:23/M
45 Tina Reynolds Port Saint Lucie FL Us 305 40 327 2:56:18 13:27/M
46 Brina Hartman West Palm Beach FL Us 158 43 339 3:05:06 14:08/M
47 Sabrina Fein Winter Park FL Us 119 43 355 3:23:52 15:34/M
48 Dawn Brocious Stuart FL Us 41 42 363 3:38:25 16:40/M
49 Dena Taylor Port St Lucie FL Us 356 42 368 3:48:47 17:28/M
50 Christina Lopez Port St. Lucie FL 399 40 376 4:22:01 20:00/M
Top

Female 45 to 49

Place Name City Bib No Age Overall Total Time Pace
1 Janine Virano Jupiter FL Us 372 46 27 1:40:37 7:41/M
2 Jill Davis Palm City FL Us 92 46 43 1:48:55 8:19/M
3 Amanda Gunter Jupiter FL Us 151 47 46 1:50:47 8:27/M
4 Denise Smith Port Saint Lucie FL Us 331 46 58 1:55:07 8:47/M
5 Christina Vorce Vero Beach FL Us 375 45 64 1:56:09 8:52/M
6 Nayomi Omura Stuart FL 273 45 69 1:56:48 8:55/M
7 Bj Gallo 373 46 103 2:03:46 9:27/M
8 Christine Grosso Stuart FL Us 148 48 109 2:04:20 9:29/M
9 Nancy Gregory Palm City FL Us 147 47 119 2:07:55 9:46/M
10 Jennifer Smith-Browne Stuart FL Us 335 47 121 2:08:35 9:49/M
11 Lisa Tom Port St. Lucie FL Us 362 46 132 2:09:54 9:55/M
12 Jen Muzzin Stuart FL 266 46 133 2:10:00 9:55/M
13 Melanie Toth Stuart FL Us 365 47 156 2:14:54 10:18/M
14 Joanne Quaile Vero Beach FL Us 415 49 172 2:18:46 10:36/M
15 Liv Vesely Jupiter FL Us 370 46 174 2:19:00 10:37/M
16 Lisa Holland Jensen Beach FL Us 168 49 194 2:21:58 10:50/M
17 Dorothy Flemming Hobe Sound FL Us 126 48 196 2:22:15 10:52/M
18 Sally Padgett Stuart FL 282 47 215 2:26:47 11:12/M
19 Leah Jenkins Hobe Sound FL Us 178 46 227 2:29:20 11:24/M
20 Sherri Cipriani Port St. Lucie FL Us 62 49 244 2:32:17 11:37/M
21 Mary Beth Henderson Stuart FL Us 163 45 246 2:32:40 11:39/M
22 Amy Eversole Palm City FL Us 114 45 258 2:34:26 11:47/M
23 Lara Buck Jupiter FL Us 45 45 279 2:40:57 12:17/M
24 Sharon Krause Port Saint Lucie FL Us 200 49 280 2:40:58 12:17/M
25 Lisa Miller Stuart FL 257 48 304 2:48:58 12:54/M
26 Christina Teahan Stuart FL Us 357 47 305 2:49:14 12:55/M
27 Editha Campbell Palm City FL Us 403 47 308 2:50:30 13:01/M
28 Tammy Gray Port Saint Lucie FL Us 143 45 318 2:54:20 13:18/M
29 Ines Murray Port St Lucie FL Us 264 47 320 2:54:59 13:21/M
30 Christine Murphy Port St Lucie FL Us 263 49 334 3:01:48 13:53/M
31 Rosa Ceballos Port St Lucie FL Us 56 47 338 3:03:13 13:59/M
32 Wendy Burke Palm City FL Us 46 47 347 3:11:50 14:39/M
33 Debbie Lathrop Port Saint Lucie FL Us 216 45 349 3:12:46 14:43/M
34 Jolene Morgan Port St Lucie FL Us 260 49 364 3:38:26 16:40/M
Top

Female 50 to 54

Place Name City Bib No Age Overall Total Time Pace
1 Julie Pape Sebastian FL Us 285 50 54 1:53:52 8:42/M
2 Marykay Mathis Lake City FL Us 237 51 56 1:54:58 8:47/M
3 Teri Weyandt Vero Beach FL Us 385 51 84 1:59:23 9:07/M
4 Jennifer Oro Stuart FL Us 276 51 88 1:59:41 9:08/M
5 Maria Kurtis Jensen Beach FL 209 53 92 2:00:01 9:10/M
6 Lisa Cox Jupiter FL Us 77 54 107 2:04:02 9:28/M
7 Royceanne Hazera Loxahatchee FL Us 161 50 110 2:05:02 9:33/M
8 Mary Beth Gutstadt Palm Beach Gardens FL Us 152 54 124 2:08:50 9:50/M
9 Mary Cohen Palm City FL Us 71 52 142 2:11:23 10:02/M
10 Cathleen Kaltenhauser Stuart FL Us 187 52 180 2:19:49 10:40/M
11 Beth Hanna Stuartstuart FL Us 155 52 181 2:19:58 10:41/M
12 Jennifer Keesler Stuart FL Us 191 51 208 2:25:22 11:06/M
13 Gabriele Adrian Port Saint Lucie FL Us 11 50 211 2:25:32 11:07/M
14 Susan Taubler Stuart FL Us 354 53 229 2:29:41 11:26/M
15 Jill Staib Stuart FL Us 340 50 239 2:31:49 11:35/M
16 Dana Pistole Stuart FL Us 292 50 242 2:32:16 11:37/M
17 Sharon David Palm Beach Gardens FL Us 91 52 264 2:36:04 11:55/M
18 Carolyn Perkins Jensen Beach FL Us 288 52 278 2:40:13 12:14/M
19 Anne Spector Palm City FL Us 338 53 286 2:42:05 12:22/M
20 Jennifer Pack Port St Lucie FL Us 281 51 307 2:49:47 12:58/M
21 Nancy Salen Port Saint Lucie FL Us 314 53 311 2:52:00 13:08/M
22 Lisa Clasen Palm City FL Us 65 50 313 2:52:20 13:09/M
23 Karen Westberry Vero Beach FL Us 383 51 344 3:08:52 14:25/M
24 Kim Hanley Lake Mary FL Us 154 54 345 3:10:22 14:32/M
25 Claudia Dicken Stuart FL Us 99 54 353 3:19:22 15:13/M
26 Annette Evans Port Saint Lucie FL Us 113 52 365 3:46:27 17:17/M
Top

Female 55 to 59

Place Name City Bib No Age Overall Total Time Pace
1 Karen Steger Palm City FL 341 59 78 1:58:13 9:01/M
2 Lynn Fishstein Stuart FL Us 124 57 81 1:59:02 9:05/M
3 Kerry Lyons Palm Beach Gardens FL Us 231 57 118 2:06:38 9:40/M
4 Beverly Tyrrell Stuart FL Us 367 56 165 2:16:52 10:27/M
5 Angela Cirou Port Saint Lucie FL Us 63 55 179 2:19:43 10:40/M
6 Michelle S Polom Stuart FL Us 294 57 236 2:31:38 11:35/M
7 Mary Ann Jessee Port Saint Lucie FL 180 58 288 2:42:45 12:25/M
8 Linda Hines Jensen Beach FL Us 404 57 295 2:46:48 12:44/M
9 Caroline Barnes Stuart FL Us 27 55 332 3:00:31 13:47/M
10 Jackie Ramsey Pontiac MI Us 301 58 333 3:00:33 13:47/M
11 Carmen Brink Port Saint Lucie FL Us 40 58 350 3:16:44 15:01/M
12 Vera Wetsel Stuart FL Us 384 57 374 4:21:58 20:00/M
Top

Female 60 to 64

Place Name City Bib No Age Overall Total Time Pace
1 Conney Dahn Stuart FL Us 88 63 85 1:59:31 9:07/M
2 Patricia Snodgrass Jensen Beach FL Us 336 61 145 2:12:41 10:08/M
3 Anita Allen Coral Springs FL Us 14 61 178 2:19:31 10:39/M
4 Sybil Cobb Port St Lucie FL Us 69 61 275 2:39:07 12:09/M
5 Kerry Jellum Jensen Beach FL 177 61 297 2:47:23 12:47/M
6 Linda Kuhns Stuart FL Us 206 62 352 3:18:44 15:10/M
7 Mary Lieber Stuart FL Us 226 64 370 3:56:07 18:01/M
Top

Female 65 to 69

Place Name City Bib No Age Overall Total Time Pace
1 Ana Bernal Vero Beach FL Us 32 68 331 3:00:02 13:45/M
2 Dorrie Hulsey Port Saint Lucie FL Us 171 67 336 3:02:21 13:55/M
3 Lynn Matthews Palm City FL Us 239 66 361 3:33:18 16:17/M
Top

Female 70 and Over

Place Name City Bib No Age Overall Total Time Pace
1 Dorothy Beck West Melbourne FL Us 29 80 366 3:47:00 17:20/M
2 Ruth Corder Melbourne FL Us 74 70 367 3:47:01 17:20/M
Top

Male Open Winners

Place Name City Bib No Age Overall Total Time Pace
1 John Reback Jupiter FL Us 428 45 1 1:20:33 6:09/M
Top

Male Masters Winners

Place Name City Bib No Age Overall Total Time Pace
1 Scott Friedman Palm Beach Gardens FL Us 131 42 8 1:30:17 6:54/M
Top

Male Grandmasters Winners

Place Name City Bib No Age Overall Total Time Pace
1 Peter Erwig Port Saint Lucie FL 3 54 28 1:41:34 7:45/M
Top

Male 19 and Under

Place Name City Bib No Age Overall Total Time Pace
1 Cody Jennings Port Saint Lucie FL Us 420 14 24 1:39:13 7:34/M
2 Ty Warner Palm City FL 379 16 168 2:17:18 10:29/M
3 Samuel Crombie Palm City FL Us 80 14 190 2:21:46 10:49/M
4 Jacobo Tapia Fort Pierce FL Us 353 18 284 2:41:47 12:21/M
Top

Male 25 to 29

Place Name City Bib No Age Overall Total Time Pace
1 Ernst Bruderek Palm Beach Gardens FL Us 44 29 47 1:51:47 8:32/M
2 Justin Claxton Palm Beach Gardens FL Us 66 29 80 1:58:55 9:05/M
3 Larry Cox Jupiter FL Us 76 28 106 2:04:02 9:28/M
4 Trevor Tonkovich Palm City FL Us 364 28 240 2:32:07 11:37/M
5 Tyeler Berry 7 26 268 2:37:20 12:01/M
6 Kurt Barnhill Stuart FL 2 27 271 2:37:43 12:02/M
7 Alexander Von Hassler West Palm Beach FL Us 374 26 316 2:52:41 13:11/M
Top

Male 30 to 34

Place Name City Bib No Age Overall Total Time Pace
1 Brandon Hill Jensen Beach FL 425 33 2 1:21:30 6:13/M
2 Ryan Billings Jupiter FL Us 412 30 3 1:22:44 6:19/M
3 Robert Barber Port Saint Lucie FL Us 25 31 6 1:29:04 6:48/M
4 Steven Williams West Palm Beach FL Us 393 30 13 1:32:54 7:05/M
5 Sean Madden Port Saint Lucie FL Us 233 34 14 1:33:46 7:09/M
6 Raymond Wesley Port Saint Lucie FL Us 382 30 17 1:36:30 7:22/M
7 Mark Aitken Palm Beach Gardens FL Us 427 33 23 1:39:09 7:34/M
8 Thomas Smith Port Saint Lucie FL Us 398 33 31 1:42:20 7:49/M
9 Joe Garcia Palm Beach Gardens FL Us 133 32 35 1:43:49 7:55/M
10 Andrew Comiter Palm Beach Gardens FL Us 73 34 57 1:55:02 8:47/M
11 Antonio Sanchez Stuart FL Us 315 32 87 1:59:40 9:08/M
12 Sokunthea Nau Port Saint Lucie FL Us 413 34 94 2:00:45 9:13/M
13 Benjamin Williams Palm Beach Gardens FL Us 390 31 105 2:03:57 9:28/M
14 Daniel Noorthoek Palm Beach Gardens FL Us 270 30 149 2:13:57 10:14/M
15 Lawrence Dahn Stuart FL Us 89 30 177 2:19:30 10:39/M
16 Michael Sihvola Stuart FL Us 325 34 186 2:21:08 10:46/M
17 Anthony Vetter Boca Raton FL Us 371 30 199 2:22:39 10:53/M
18 Nicholson Alexis Port Saint Lucie FL Us 13 31 209 2:25:24 11:06/M
19 Dylan Jennings Port St Lucie FL Us 179 32 260 2:35:26 11:52/M
20 Ron Friscia Port St. Lucie FL 418 30 261 2:35:36 11:53/M
21 Walter Campbell Port Saint Lucie FL Us 53 33 266 2:36:44 11:58/M
Top

Male 35 to 39

Place Name City Bib No Age Overall Total Time Pace
1 Dylan Siska Boynton Beach FL Us 1 37 4 1:24:59 6:29/M
2 Keith Hampshire West Palm Beach FL Us 429 35 9 1:30:37 6:55/M
3 Justyn Bradley Jupiter FL Us 38 38 39 1:45:48 8:05/M
4 John Keelor Port Saint Lucie FL Us 190 39 67 1:56:21 8:53/M
5 Jeffrey Frohlich Stuart FL Us 132 37 71 1:56:55 8:55/M
6 Jonathan Blackburn Vero Beach FL Us 416 39 116 2:06:30 9:39/M
7 Jason Alviene Port St. Lucie FL 16 39 122 2:08:40 9:49/M
8 Heath McKnight Palm Beach Gardens FL Us 243 39 128 2:08:59 9:51/M
9 Joe Kreutzer Jensen Beach FL Us 202 37 147 2:13:33 10:12/M
10 Don Richardson Port Saint Lucie FL Us 306 38 151 2:14:09 10:14/M
11 Steven Messer Fort Pierce FL Us 253 38 189 2:21:38 10:49/M
12 Adam Palas Stuart FL Us 283 38 213 2:26:08 11:09/M
13 Hugo Tovar Port Saint Lucie FL Us 409 36 289 2:43:35 12:29/M
14 Bucky Cooper Lake Worth FL Us 400 38 375 4:22:00 20:00/M
Top

Male 40 to 44

Place Name City Bib No Age Overall Total Time Pace
1 Jony Leitenbauer Fort Pierce FL Us 402 41 11 1:31:43 7:00/M
2 Gene Zweben Palm City FL Us 6 44 15 1:34:12 7:11/M
3 Joe Miller Stuart FL Us 256 44 19 1:37:12 7:25/M
4 Paul Oser Jensen Beach FL 279 41 33 1:43:02 7:52/M
5 Alexander Beringer Palm City FL Us 31 40 34 1:43:47 7:55/M
6 Mickey Planker Stuart FL 293 44 38 1:45:27 8:03/M
7 Paul Needham Stuart FL Us 268 42 40 1:46:37 8:08/M
8 Brad Klostreich Palm City FL 422 44 45 1:49:54 8:23/M
9 Chris Gozdz Jensen Beach FL Us 140 44 49 1:52:33 8:35/M
10 Pieter Scheepers Vero Beach FL Us 317 40 53 1:53:47 8:41/M
11 Matt Stoneburg Jensen Beach FL Us 426 41 55 1:53:55 8:42/M
12 Jamie Roussel Wellington FL Us 310 44 63 1:56:00 8:51/M
13 Steve Sessoms Port Saint Lucie FL Us 320 43 187 2:21:22 10:47/M
14 Glen Fetzner Stuart FL Us 121 44 192 2:21:55 10:50/M
15 Edwin J Yllescas Hollywood FL Us 397 44 306 2:49:34 12:57/M
16 Marc Guedj Port St Lucie FL Us 150 43 340 3:05:32 14:10/M
17 Kenneth Imler Bradenton FL Us 175 40 348 3:12:38 14:42/M
Top

Male 45 to 49

Place Name City Bib No Age Overall Total Time Pace
1 David Blanchard Boca Raton FL Us 35 45 10 1:31:24 6:59/M
2 Dan Chotos Hollywood FL Us 57 48 18 1:37:09 7:25/M
3 James Wilson Port Saint Lucie FL Us 394 46 21 1:38:36 7:32/M
4 Atilla Kardas Jupiter FL 419 48 22 1:38:55 7:33/M
5 Jose Medina Port St. Lucie FL Us 246 46 30 1:41:48 7:46/M
6 Jacek Szymanowicz Stuart FL Us 350 47 59 1:55:14 8:48/M
7 Thomas Muro Jupiter FL Us 262 48 120 2:08:23 9:48/M
8 Scott Sharp Palm Citypalm City FL Us 322 46 162 2:16:05 10:23/M
9 James Ryan Vero Beach FL Us 311 49 197 2:22:15 10:52/M
10 Pete Clay Palm Beach Gardens FL Us 68 48 218 2:27:39 11:16/M
11 Jim Gallo 363 48 234 2:31:09 11:32/M
12 Edward Jones Port St Lucie FL Us 185 46 259 2:34:44 11:49/M
13 Mike O'Leary Palm City FL Us 408 48 263 2:35:51 11:54/M
14 Christopher Cantore Stuart FL Us 54 48 312 2:52:01 13:08/M
Top

Male 50 to 54

Place Name City Bib No Age Overall Total Time Pace
1 Brian Kirkwood Stuart FL Us 196 50 36 1:44:27 7:58/M
2 Marc Croteau Jupiter FL Us 82 50 74 1:57:57 9:00/M
3 Jack Slimm Jensen Beach FL Us 328 54 95 2:01:04 9:15/M
4 Roger Lebel Port Saint Lucie FL Us 219 54 114 2:06:02 9:37/M
5 Wayne Powell Stuart FL Us 296 50 130 2:09:43 9:54/M
6 Ed Burrows Stuart FL Us 9 52 169 2:17:27 10:30/M
7 Leonardo Bejarano Jupiter FL Us 30 52 176 2:19:10 10:37/M
8 Edgar Perkins Jensen Beach FL Us 289 52 184 2:20:39 10:44/M
9 Joe Crosby Vero Beach FL Us 81 52 203 2:24:26 11:02/M
10 Dave Yablunosky Delray Beach FL Us 395 53 220 2:27:46 11:17/M
11 Jerson Diaz Jupiter FL Us 97 53 273 2:38:30 12:06/M
12 Fredrick Heidt Port St Lucie FL Us 162 50 372 4:03:36 18:36/M
Top

Male 55 to 59

Place Name City Bib No Age Overall Total Time Pace
1 Stephen Curet Palm City FL Us 83 58 41 1:47:14 8:11/M
2 Chris Muenzer Irmo SC Us 401 55 44 1:49:37 8:22/M
3 John Kemler Jensen Beach FL Us 192 58 50 1:53:08 8:38/M
4 Perry Feyk Pbg FL Us 122 59 68 1:56:23 8:53/M
5 John F Binkley III Vero Beach FL Us 34 58 75 1:57:57 9:00/M
6 Jerry Bocchino Jensen Beach FL Us 36 59 86 1:59:39 9:08/M
7 Tim Donofrio Stuart FL Us 102 57 166 2:16:59 10:27/M
8 Scott Reiter Jupiter FL Us 303 55 212 2:25:40 11:07/M
9 James Storlie Hobe Sound FL Us 342 56 224 2:28:49 11:22/M
10 John Toebe Stuart FL Us 360 59 230 2:29:46 11:26/M
11 Bruce Kushner Port St Lucie FL Us 211 58 310 2:51:25 13:05/M
12 Sam Dicken Stuart FL Us 100 55 358 3:26:13 15:45/M
13 Jorge Aquino West Palm Beach FL Us 17 59 359 3:26:25 15:45/M
14 Mark Pistole Stuart FL Us 414 58 373 4:08:17 18:57/M
Top

Male 60 to 64

Place Name City Bib No Age Overall Total Time Pace
1 Mike Dahan Fort Pierce FL Us 87 60 29 1:41:46 7:46/M
2 Darrell Fiske Palm City FL Us 125 60 42 1:48:55 8:19/M
3 John Lieber Stuart FL Us 225 64 274 2:38:33 12:06/M
4 Richard Creque Port St. Lucie FL Us 79 63 303 2:48:48 12:53/M
5 Chris Mavroides Okeechobee FL Us 240 61 337 3:02:50 13:57/M
Top

Male 65 to 69

Place Name City Bib No Age Overall Total Time Pace
1 Frank Spicer Tampa FL Us 339 66 182 2:20:15 10:42/M
2 Bill Hester Jensen Beach FL Us 165 66 216 2:27:22 11:15/M
3 James Hill Stuart FL 166 68 341 3:07:32 14:19/M
4 Don Holshuh Surry NH Us 169 66 362 3:38:17 16:40/M
Top

Male 70 and Over

Place Name City Bib No Age Overall Total Time Pace
1 Robert Pope Hobe Sound FL Us 295 74 65 1:56:11 8:52/M
2 Bruce Lottman Stuart FL Us 229 73 183 2:20:16 10:42/M
3 Tim Fischer Jupiter FL Us 123 71 226 2:29:02 11:23/M